VOZ8483 YANG-YBRM
Flight info
| Callsign | VOZ8483 |
|---|---|
| Flight time | 1h 5m |
| Altitude | 37000 |
| Route | ASEBU Y31 BRM |
| Aircraft | B738/M-SDE2E3FGHIRWXY/LB1 |
Departure
| Time | 2026-05-06 12:02 |
|---|---|
| Airport | West Angelas Airport (YANG) |
Arrival
| Time | 2026-05-06 13:07 |
|---|---|
| Airport | Broome International Airport (YBRM) |
| Time | Latitude | Longitude | Altitude | Speed | Heading |
|---|---|---|---|---|---|
| 2026-05-06 11:52 | -23.13698 | 118.70417 | 2312 ft | 0 kts | 334° |
| 2026-05-06 11:57 | -23.13694 | 118.70419 | 2305 ft | 2 kts | 23° |
| 2026-05-06 11:57 | -23.13686 | 118.70453 | 2298 ft | 9 kts | 79° |
| 2026-05-06 11:57 | -23.13686 | 118.70508 | 2304 ft | 7 kts | 107° |
| 2026-05-06 11:58 | -23.13693 | 118.70521 | 2300 ft | 0 kts | 126° |
| 2026-05-06 11:59 | -23.13712 | 118.70546 | 2301 ft | 10 kts | 131° |
| 2026-05-06 11:59 | -23.13795 | 118.70529 | 2301 ft | 18 kts | 224° |
| 2026-05-06 12:00 | -23.13903 | 118.70409 | 2296 ft | 26 kts | 224° |
| 2026-05-06 12:00 | -23.14052 | 118.70246 | 2302 ft | 34 kts | 224° |
| 2026-05-06 12:00 | -23.14172 | 118.70126 | 2296 ft | 14 kts | 205° |
| 2026-05-06 12:00 | -23.14217 | 118.70087 | 2293 ft | 5 kts | 292° |
| 2026-05-06 12:01 | -23.14196 | 118.70088 | 2301 ft | 0 kts | 36° |
| 2026-05-06 12:01 | -23.14080 | 118.70215 | 2305 ft | 61 kts | 45° |
| 2026-05-06 12:01 | -23.13612 | 118.70734 | 2303 ft | 129 kts | 47° |
| 2026-05-06 12:01 | -23.12891 | 118.71502 | 2589 ft | 151 kts | 50° |
| 2026-05-06 12:02 | -23.12167 | 118.72351 | 3238 ft | 160 kts | 52° |
| 2026-05-06 12:02 | -23.11432 | 118.73361 | 3739 ft | 182 kts | 59° |
| 2026-05-06 12:02 | -23.10682 | 118.74564 | 4252 ft | 201 kts | 60° |
| 2026-05-06 12:02 | -23.09871 | 118.75855 | 4870 ft | 208 kts | 63° |
| 2026-05-06 12:03 | -23.09191 | 118.77204 | 4803 ft | 206 kts | 68° |
| 2026-05-06 12:03 | -23.08551 | 118.78628 | 4540 ft | 216 kts | 67° |
| 2026-05-06 12:03 | -23.07865 | 118.80218 | 4197 ft | 248 kts | 69° |
| 2026-05-06 12:03 | -23.07146 | 118.81930 | 3923 ft | 255 kts | 64° |
| 2026-05-06 12:04 | -23.06439 | 118.82921 | 4054 ft | 248 kts | 48° |
| 2026-05-06 12:04 | -23.05159 | 118.84153 | 4241 ft | 247 kts | 46° |
| 2026-05-06 12:04 | -23.03849 | 118.85414 | 4445 ft | 256 kts | 46° |
| 2026-05-06 12:04 | -23.02520 | 118.86702 | 5051 ft | 257 kts | 46° |
| 2026-05-06 12:05 | -23.01179 | 118.87999 | 5842 ft | 260 kts | 46° |
| 2026-05-06 12:05 | -22.99836 | 118.89308 | 6676 ft | 259 kts | 46° |
| 2026-05-06 12:05 | -22.98494 | 118.90630 | 7382 ft | 263 kts | 45° |
| 2026-05-06 12:05 | -22.97145 | 118.91992 | 8063 ft | 268 kts | 45° |
| 2026-05-06 12:06 | -22.95777 | 118.93402 | 8742 ft | 274 kts | 45° |
| 2026-05-06 12:06 | -22.94401 | 118.94848 | 9463 ft | 278 kts | 45° |
| 2026-05-06 12:06 | -22.93015 | 118.96329 | 10172 ft | 282 kts | 45° |
| 2026-05-06 12:06 | -22.91586 | 118.97885 | 10434 ft | 303 kts | 46° |
| 2026-05-06 12:07 | -22.90056 | 118.99567 | 10663 ft | 322 kts | 46° |
| 2026-05-06 12:07 | -22.88467 | 119.01322 | 11235 ft | 328 kts | 46° |
| 2026-05-06 12:07 | -22.86857 | 119.03104 | 11842 ft | 334 kts | 46° |
| 2026-05-06 12:07 | -22.85226 | 119.04917 | 12487 ft | 338 kts | 46° |
| 2026-05-06 12:08 | -22.83572 | 119.06762 | 13033 ft | 345 kts | 46° |
| 2026-05-06 12:08 | -22.81892 | 119.08645 | 13623 ft | 350 kts | 46° |
| 2026-05-06 12:08 | -22.80192 | 119.10556 | 14180 ft | 355 kts | 46° |
| 2026-05-06 12:08 | -22.78468 | 119.12503 | 14706 ft | 360 kts | 46° |
| 2026-05-06 12:09 | -22.76726 | 119.14476 | 15234 ft | 365 kts | 46° |
| 2026-05-06 12:09 | -22.74963 | 119.16479 | 15762 ft | 370 kts | 46° |
| 2026-05-06 12:09 | -22.73178 | 119.18513 | 16246 ft | 375 kts | 46° |
| 2026-05-06 12:09 | -22.71369 | 119.20586 | 16753 ft | 381 kts | 46° |
| 2026-05-06 12:10 | -22.69539 | 119.22690 | 17240 ft | 386 kts | 46° |
| 2026-05-06 12:10 | -22.67699 | 119.24813 | 17833 ft | 388 kts | 46° |
| 2026-05-06 12:10 | -22.65845 | 119.26956 | 18405 ft | 391 kts | 46° |
| 2026-05-06 12:10 | -22.63864 | 119.28977 | 18875 ft | 393 kts | 37° |
| 2026-05-06 12:11 | -22.61689 | 119.30779 | 19371 ft | 395 kts | 35° |
| 2026-05-06 12:11 | -22.59489 | 119.32580 | 19850 ft | 398 kts | 36° |
| 2026-05-06 12:11 | -22.57312 | 119.34460 | 20315 ft | 402 kts | 38° |
| 2026-05-06 12:11 | -22.55170 | 119.36427 | 20781 ft | 406 kts | 40° |
| 2026-05-06 12:12 | -22.53055 | 119.38470 | 21234 ft | 409 kts | 41° |
| 2026-05-06 12:12 | -22.50954 | 119.40571 | 21683 ft | 413 kts | 41° |
| 2026-05-06 12:12 | -22.48859 | 119.42710 | 22130 ft | 416 kts | 42° |
| 2026-05-06 12:12 | -22.46760 | 119.44877 | 22564 ft | 419 kts | 42° |
| 2026-05-06 12:13 | -22.44645 | 119.47072 | 22999 ft | 423 kts | 42° |
| 2026-05-06 12:13 | -22.42518 | 119.49281 | 23414 ft | 426 kts | 42° |
| 2026-05-06 12:13 | -22.40376 | 119.51507 | 23813 ft | 429 kts | 42° |
| 2026-05-06 12:13 | -22.38216 | 119.53750 | 24138 ft | 432 kts | 42° |
| 2026-05-06 12:14 | -22.36035 | 119.56011 | 24429 ft | 437 kts | 41° |
| 2026-05-06 12:14 | -22.33829 | 119.58296 | 24721 ft | 441 kts | 41° |
| 2026-05-06 12:14 | -22.31609 | 119.60593 | 25047 ft | 444 kts | 41° |
| 2026-05-06 12:14 | -22.29368 | 119.62912 | 25377 ft | 447 kts | 41° |
| 2026-05-06 12:15 | -22.27116 | 119.65240 | 25687 ft | 450 kts | 41° |
| 2026-05-06 12:15 | -22.24844 | 119.67587 | 25986 ft | 454 kts | 41° |
| 2026-05-06 12:15 | -22.22552 | 119.69955 | 26297 ft | 457 kts | 41° |
| 2026-05-06 12:15 | -22.20247 | 119.72334 | 26589 ft | 460 kts | 40° |
| 2026-05-06 12:16 | -22.17958 | 119.74696 | 26876 ft | 463 kts | 40° |
| 2026-05-06 12:16 | -22.15620 | 119.77107 | 27149 ft | 467 kts | 40° |
| 2026-05-06 12:16 | -22.13267 | 119.79533 | 27427 ft | 470 kts | 40° |
| 2026-05-06 12:16 | -22.10897 | 119.81974 | 27701 ft | 473 kts | 40° |
| 2026-05-06 12:17 | -22.08514 | 119.84429 | 27975 ft | 475 kts | 40° |
| 2026-05-06 12:17 | -22.06108 | 119.86904 | 28114 ft | 482 kts | 40° |
| 2026-05-06 12:17 | -22.01188 | 119.91962 | 28125 ft | 494 kts | 40° |
| 2026-05-06 12:18 | -21.98719 | 119.94503 | 28673 ft | 488 kts | 40° |
| 2026-05-06 12:18 | -21.96271 | 119.97021 | 29143 ft | 486 kts | 39° |
| 2026-05-06 12:18 | -21.93817 | 119.99543 | 29344 ft | 490 kts | 39° |
| 2026-05-06 12:18 | -21.91332 | 120.02092 | 29512 ft | 495 kts | 39° |
| 2026-05-06 12:19 | -21.88836 | 120.04651 | 29754 ft | 497 kts | 39° |
| 2026-05-06 12:19 | -21.86325 | 120.07224 | 30019 ft | 499 kts | 39° |
| 2026-05-06 12:19 | -21.83802 | 120.09809 | 30241 ft | 502 kts | 39° |
| 2026-05-06 12:19 | -21.81269 | 120.12403 | 30426 ft | 504 kts | 39° |
| 2026-05-06 12:20 | -21.78720 | 120.15012 | 30599 ft | 507 kts | 39° |
| 2026-05-06 12:20 | -21.76155 | 120.17636 | 30774 ft | 510 kts | 39° |
| 2026-05-06 12:20 | -21.73582 | 120.20267 | 30950 ft | 512 kts | 39° |
| 2026-05-06 12:20 | -21.70995 | 120.22912 | 31122 ft | 514 kts | 39° |
| 2026-05-06 12:21 | -21.68396 | 120.25566 | 31296 ft | 517 kts | 39° |
| 2026-05-06 12:21 | -21.65784 | 120.28234 | 31461 ft | 519 kts | 38° |
| 2026-05-06 12:21 | -21.63166 | 120.30906 | 31684 ft | 519 kts | 38° |
| 2026-05-06 12:21 | -21.60547 | 120.33579 | 31941 ft | 519 kts | 38° |
| 2026-05-06 12:22 | -21.57927 | 120.36250 | 32169 ft | 520 kts | 38° |
| 2026-05-06 12:22 | -21.55304 | 120.38924 | 32356 ft | 521 kts | 38° |
| 2026-05-06 12:22 | -21.52670 | 120.41606 | 32530 ft | 522 kts | 38° |
| 2026-05-06 12:22 | -21.50030 | 120.44292 | 32760 ft | 522 kts | 38° |
| 2026-05-06 12:23 | -21.47399 | 120.46969 | 33003 ft | 522 kts | 38° |
| 2026-05-06 12:23 | -21.44757 | 120.49656 | 33189 ft | 523 kts | 37° |
| 2026-05-06 12:23 | -21.42111 | 120.52344 | 33369 ft | 524 kts | 37° |
| 2026-05-06 12:23 | -21.39461 | 120.55035 | 33589 ft | 525 kts | 37° |
| 2026-05-06 12:24 | -21.36809 | 120.57728 | 33808 ft | 525 kts | 37° |
| 2026-05-06 12:24 | -21.34157 | 120.60418 | 33983 ft | 526 kts | 37° |
| 2026-05-06 12:24 | -21.31493 | 120.63119 | 34138 ft | 527 kts | 37° |
| 2026-05-06 12:24 | -21.28827 | 120.65821 | 34287 ft | 527 kts | 37° |
| 2026-05-06 12:25 | -21.26212 | 120.68473 | 34405 ft | 525 kts | 37° |
| 2026-05-06 12:25 | -21.23549 | 120.71169 | 34503 ft | 527 kts | 37° |
| 2026-05-06 12:25 | -21.20888 | 120.73861 | 34676 ft | 527 kts | 37° |
| 2026-05-06 12:25 | -21.18216 | 120.76565 | 34905 ft | 526 kts | 37° |
| 2026-05-06 12:26 | -21.15558 | 120.79252 | 35104 ft | 525 kts | 37° |
| 2026-05-06 12:26 | -21.12903 | 120.81935 | 35300 ft | 524 kts | 37° |
| 2026-05-06 12:26 | -21.10254 | 120.84611 | 35466 ft | 524 kts | 37° |
| 2026-05-06 12:26 | -21.07598 | 120.87291 | 35642 ft | 524 kts | 37° |
| 2026-05-06 12:27 | -21.04948 | 120.89965 | 35812 ft | 524 kts | 37° |
| 2026-05-06 12:27 | -21.02300 | 120.92635 | 35990 ft | 523 kts | 37° |
| 2026-05-06 12:27 | -20.99651 | 120.95304 | 36188 ft | 522 kts | 37° |
| 2026-05-06 12:27 | -20.97014 | 120.97962 | 36411 ft | 520 kts | 37° |
| 2026-05-06 12:28 | -20.94388 | 121.00607 | 36598 ft | 518 kts | 37° |
| 2026-05-06 12:28 | -20.91763 | 121.03247 | 36749 ft | 518 kts | 36° |
| 2026-05-06 12:28 | -20.89137 | 121.05887 | 36877 ft | 519 kts | 36° |
| 2026-05-06 12:28 | -20.86505 | 121.08531 | 37009 ft | 519 kts | 36° |
| 2026-05-06 12:29 | -20.81230 | 121.13827 | 37035 ft | 521 kts | 36° |
| 2026-05-06 12:29 | -20.75958 | 121.19119 | 37044 ft | 519 kts | 36° |
| 2026-05-06 12:30 | -20.70705 | 121.24388 | 37036 ft | 517 kts | 36° |
| 2026-05-06 12:30 | -20.65476 | 121.29625 | 37040 ft | 515 kts | 36° |
| 2026-05-06 12:31 | -20.60257 | 121.34847 | 37044 ft | 514 kts | 36° |
| 2026-05-06 12:31 | -20.55049 | 121.40052 | 37032 ft | 512 kts | 36° |
| 2026-05-06 12:32 | -20.49843 | 121.45248 | 37040 ft | 513 kts | 36° |
| 2026-05-06 12:32 | -20.44626 | 121.50450 | 37036 ft | 514 kts | 36° |
| 2026-05-06 12:33 | -20.39394 | 121.55664 | 37043 ft | 516 kts | 36° |
| 2026-05-06 12:33 | -20.34144 | 121.60892 | 37038 ft | 517 kts | 36° |
| 2026-05-06 12:34 | -20.28903 | 121.66110 | 37019 ft | 511 kts | 36° |
| 2026-05-06 12:34 | -20.23765 | 121.71222 | 37012 ft | 502 kts | 35° |
| 2026-05-06 12:35 | -20.21228 | 121.73741 | 36704 ft | 496 kts | 35° |
| 2026-05-06 12:35 | -20.18698 | 121.76248 | 36092 ft | 499 kts | 35° |
| 2026-05-06 12:35 | -20.16134 | 121.78783 | 35252 ft | 507 kts | 35° |
| 2026-05-06 12:35 | -20.13404 | 121.81144 | 34565 ft | 503 kts | 26° |
| 2026-05-06 12:36 | -20.10454 | 121.83047 | 34201 ft | 488 kts | 17° |
| 2026-05-06 12:36 | -20.07394 | 121.84456 | 33897 ft | 475 kts | 12° |
| 2026-05-06 12:36 | -20.04388 | 121.85741 | 33548 ft | 469 kts | 12° |
| 2026-05-06 12:36 | -20.01363 | 121.87020 | 33146 ft | 466 kts | 12° |
| 2026-05-06 12:37 | -19.98360 | 121.88295 | 32742 ft | 463 kts | 12° |
| 2026-05-06 12:37 | -19.95383 | 121.89571 | 32363 ft | 460 kts | 12° |
| 2026-05-06 12:37 | -19.92436 | 121.90846 | 32092 ft | 454 kts | 13° |
| 2026-05-06 12:37 | -19.89539 | 121.92109 | 31798 ft | 447 kts | 13° |
| 2026-05-06 12:38 | -19.86682 | 121.93358 | 31551 ft | 442 kts | 13° |
| 2026-05-06 12:38 | -19.83825 | 121.94602 | 31331 ft | 445 kts | 13° |
| 2026-05-06 12:38 | -19.80948 | 121.95850 | 31113 ft | 449 kts | 13° |
| 2026-05-06 12:38 | -19.78048 | 121.97110 | 30888 ft | 449 kts | 13° |
| 2026-05-06 12:39 | -19.75186 | 121.98361 | 30618 ft | 443 kts | 13° |
| 2026-05-06 12:39 | -19.72346 | 121.99602 | 30285 ft | 440 kts | 13° |
| 2026-05-06 12:39 | -19.69527 | 122.00833 | 29900 ft | 437 kts | 13° |
| 2026-05-06 12:39 | -19.66728 | 122.02052 | 29483 ft | 434 kts | 13° |
| 2026-05-06 12:40 | -19.63946 | 122.03264 | 29074 ft | 430 kts | 13° |
| 2026-05-06 12:40 | -19.61199 | 122.04462 | 28622 ft | 423 kts | 13° |
| 2026-05-06 12:40 | -19.58493 | 122.05640 | 27980 ft | 419 kts | 13° |
| 2026-05-06 12:40 | -19.55810 | 122.06806 | 27346 ft | 416 kts | 14° |
| 2026-05-06 12:41 | -19.53148 | 122.07962 | 26767 ft | 411 kts | 14° |
| 2026-05-06 12:41 | -19.50516 | 122.09106 | 26257 ft | 406 kts | 14° |
| 2026-05-06 12:41 | -19.47920 | 122.10234 | 25738 ft | 401 kts | 14° |
| 2026-05-06 12:41 | -19.45350 | 122.11349 | 25198 ft | 398 kts | 14° |
| 2026-05-06 12:42 | -19.42799 | 122.12455 | 24666 ft | 394 kts | 14° |
| 2026-05-06 12:42 | -19.40275 | 122.13549 | 24158 ft | 390 kts | 15° |
| 2026-05-06 12:42 | -19.37779 | 122.14631 | 23666 ft | 386 kts | 15° |
| 2026-05-06 12:42 | -19.35302 | 122.15705 | 23088 ft | 382 kts | 15° |
| 2026-05-06 12:43 | -19.32853 | 122.16766 | 22521 ft | 379 kts | 15° |
| 2026-05-06 12:43 | -19.30427 | 122.17817 | 21938 ft | 376 kts | 16° |
| 2026-05-06 12:43 | -19.27981 | 122.18873 | 21455 ft | 378 kts | 16° |
| 2026-05-06 12:43 | -19.25453 | 122.19702 | 20906 ft | 389 kts | 5° |
| 2026-05-06 12:44 | -19.22713 | 122.20206 | 20507 ft | 412 kts | 4° |
| 2026-05-06 12:44 | -19.19858 | 122.20717 | 20110 ft | 418 kts | 5° |
| 2026-05-06 12:44 | -19.16987 | 122.21244 | 19700 ft | 418 kts | 5° |
| 2026-05-06 12:44 | -19.14140 | 122.21778 | 19293 ft | 415 kts | 6° |
| 2026-05-06 12:45 | -19.11306 | 122.22319 | 18892 ft | 412 kts | 6° |
| 2026-05-06 12:45 | -19.08493 | 122.22859 | 18504 ft | 410 kts | 6° |
| 2026-05-06 12:45 | -19.02945 | 122.23931 | 17644 ft | 405 kts | 7° |
| 2026-05-06 12:46 | -19.00184 | 122.24465 | 17238 ft | 402 kts | 7° |
| 2026-05-06 12:46 | -18.97448 | 122.24993 | 16848 ft | 398 kts | 7° |
| 2026-05-06 12:46 | -18.94735 | 122.25518 | 16464 ft | 394 kts | 6° |
| 2026-05-06 12:46 | -18.92056 | 122.26034 | 16092 ft | 390 kts | 7° |
| 2026-05-06 12:47 | -18.89392 | 122.26548 | 15718 ft | 387 kts | 7° |
| 2026-05-06 12:47 | -18.86754 | 122.27056 | 15353 ft | 384 kts | 7° |
| 2026-05-06 12:47 | -18.84138 | 122.27559 | 14987 ft | 381 kts | 7° |
| 2026-05-06 12:47 | -18.81541 | 122.28059 | 14624 ft | 378 kts | 7° |
| 2026-05-06 12:48 | -18.78958 | 122.28556 | 14254 ft | 376 kts | 7° |
| 2026-05-06 12:48 | -18.76396 | 122.29049 | 13896 ft | 373 kts | 7° |
| 2026-05-06 12:48 | -18.73846 | 122.29539 | 13494 ft | 371 kts | 8° |
| 2026-05-06 12:48 | -18.71317 | 122.30025 | 13117 ft | 368 kts | 8° |
| 2026-05-06 12:49 | -18.68807 | 122.30507 | 12741 ft | 365 kts | 8° |
| 2026-05-06 12:49 | -18.66321 | 122.30985 | 12374 ft | 362 kts | 8° |
| 2026-05-06 12:49 | -18.63853 | 122.31459 | 12022 ft | 359 kts | 9° |
| 2026-05-06 12:49 | -18.61401 | 122.31930 | 11672 ft | 357 kts | 9° |
| 2026-05-06 12:50 | -18.59785 | 122.32240 | 11441 ft | 356 kts | 9° |
| 2026-05-06 12:50 | -18.57355 | 122.32706 | 11093 ft | 354 kts | 9° |
| 2026-05-06 12:50 | -18.54933 | 122.33171 | 10749 ft | 353 kts | 9° |
| 2026-05-06 12:50 | -18.52521 | 122.33633 | 10398 ft | 352 kts | 10° |
| 2026-05-06 12:51 | -18.50128 | 122.34092 | 10227 ft | 346 kts | 10° |
| 2026-05-06 12:51 | -18.47765 | 122.34545 | 10104 ft | 347 kts | 10° |
| 2026-05-06 12:51 | -18.45425 | 122.34994 | 10025 ft | 336 kts | 10° |
| 2026-05-06 12:51 | -18.43172 | 122.35426 | 10007 ft | 322 kts | 10° |
| 2026-05-06 12:52 | -18.41008 | 122.35841 | 9997 ft | 308 kts | 10° |
| 2026-05-06 12:52 | -18.38944 | 122.36236 | 9998 ft | 295 kts | 10° |
| 2026-05-06 12:52 | -18.36952 | 122.36618 | 9830 ft | 289 kts | 10° |
| 2026-05-06 12:52 | -18.34970 | 122.36998 | 9465 ft | 290 kts | 10° |
| 2026-05-06 12:53 | -18.32978 | 122.37379 | 9120 ft | 291 kts | 10° |
| 2026-05-06 12:53 | -18.30994 | 122.37759 | 8805 ft | 290 kts | 10° |
| 2026-05-06 12:53 | -18.29013 | 122.38138 | 8506 ft | 288 kts | 10° |
| 2026-05-06 12:53 | -18.27045 | 122.38515 | 8195 ft | 288 kts | 10° |
| 2026-05-06 12:54 | -18.25075 | 122.38892 | 7895 ft | 287 kts | 10° |
| 2026-05-06 12:54 | -18.23119 | 122.39266 | 7607 ft | 286 kts | 10° |
| 2026-05-06 12:54 | -18.21164 | 122.39639 | 7305 ft | 285 kts | 10° |
| 2026-05-06 12:54 | -18.19212 | 122.40012 | 7021 ft | 284 kts | 9° |
| 2026-05-06 12:55 | -18.17278 | 122.40064 | 6683 ft | 284 kts | 345° |
| 2026-05-06 12:55 | -18.15486 | 122.39195 | 6383 ft | 277 kts | 325° |
| 2026-05-06 12:55 | -18.13947 | 122.38038 | 6040 ft | 272 kts | 323° |
| 2026-05-06 12:55 | -18.12466 | 122.36899 | 5953 ft | 257 kts | 322° |
| 2026-05-06 12:56 | -18.11074 | 122.35801 | 5802 ft | 245 kts | 320° |
| 2026-05-06 12:56 | -18.09841 | 122.34594 | 5466 ft | 242 kts | 311° |
| 2026-05-06 12:56 | -18.08789 | 122.33215 | 5048 ft | 243 kts | 304° |
| 2026-05-06 12:56 | -18.07924 | 122.31683 | 4701 ft | 243 kts | 295° |
| 2026-05-06 12:57 | -18.07241 | 122.30010 | 4690 ft | 253 kts | 288° |
| 2026-05-06 12:57 | -18.06752 | 122.28242 | 4638 ft | 251 kts | 284° |
| 2026-05-06 12:57 | -18.06292 | 122.26484 | 4596 ft | 247 kts | 284° |
| 2026-05-06 12:57 | -18.05837 | 122.24765 | 4583 ft | 242 kts | 284° |
| 2026-05-06 12:58 | -18.05386 | 122.23068 | 4584 ft | 239 kts | 284° |
| 2026-05-06 12:58 | -18.04937 | 122.21380 | 4601 ft | 241 kts | 284° |
| 2026-05-06 12:58 | -18.04482 | 122.19664 | 4611 ft | 246 kts | 284° |
| 2026-05-06 12:58 | -18.04023 | 122.17942 | 4591 ft | 241 kts | 284° |
| 2026-05-06 12:59 | -18.03586 | 122.16299 | 4600 ft | 225 kts | 284° |
| 2026-05-06 12:59 | -18.03180 | 122.14782 | 4580 ft | 207 kts | 285° |
| 2026-05-06 12:59 | -18.02747 | 122.13409 | 4563 ft | 193 kts | 276° |
| 2026-05-06 12:59 | -18.02954 | 122.12052 | 4604 ft | 189 kts | 239° |
| 2026-05-06 13:00 | -18.03683 | 122.10910 | 4601 ft | 188 kts | 232° |
| 2026-05-06 13:00 | -18.04465 | 122.09809 | 4601 ft | 188 kts | 232° |
| 2026-05-06 13:00 | -18.05247 | 122.08708 | 4597 ft | 189 kts | 231° |
| 2026-05-06 13:00 | -18.05979 | 122.07575 | 4560 ft | 187 kts | 247° |
| 2026-05-06 13:01 | -18.06056 | 122.06229 | 4502 ft | 191 kts | 287° |
| 2026-05-06 13:01 | -18.05296 | 122.05124 | 4416 ft | 187 kts | 329° |
| 2026-05-06 13:01 | -18.04042 | 122.04762 | 4292 ft | 192 kts | 0° |
| 2026-05-06 13:01 | -18.02716 | 122.04848 | 4117 ft | 189 kts | 8° |
| 2026-05-06 13:02 | -18.01423 | 122.05016 | 3964 ft | 185 kts | 7° |
| 2026-05-06 13:02 | -18.00169 | 122.05177 | 3917 ft | 180 kts | 7° |
| 2026-05-06 13:02 | -17.98878 | 122.05347 | 3702 ft | 189 kts | 7° |
| 2026-05-06 13:02 | -17.97580 | 122.05525 | 3499 ft | 187 kts | 9° |
| 2026-05-06 13:03 | -17.96319 | 122.05791 | 3326 ft | 183 kts | 13° |
| 2026-05-06 13:03 | -17.95099 | 122.06162 | 3093 ft | 183 kts | 21° |
| 2026-05-06 13:03 | -17.93963 | 122.06757 | 2830 ft | 183 kts | 33° |
| 2026-05-06 13:03 | -17.93010 | 122.07626 | 2568 ft | 181 kts | 49° |
| 2026-05-06 13:04 | -17.92332 | 122.08750 | 2225 ft | 185 kts | 65° |
| 2026-05-06 13:04 | -17.91999 | 122.10049 | 1841 ft | 184 kts | 82° |
| 2026-05-06 13:04 | -17.91992 | 122.11368 | 1584 ft | 178 kts | 93° |
| 2026-05-06 13:04 | -17.92225 | 122.12631 | 1328 ft | 176 kts | 104° |
| 2026-05-06 13:05 | -17.92565 | 122.13879 | 1218 ft | 180 kts | 106° |
| 2026-05-06 13:05 | -17.92964 | 122.15093 | 1212 ft | 166 kts | 107° |
| 2026-05-06 13:05 | -17.93272 | 122.16261 | 1130 ft | 164 kts | 101° |
| 2026-05-06 13:05 | -17.93530 | 122.17425 | 927 ft | 163 kts | 103° |
| 2026-05-06 13:06 | -17.93817 | 122.18568 | 726 ft | 160 kts | 104° |
| 2026-05-06 13:06 | -17.94084 | 122.19677 | 532 ft | 157 kts | 104° |
| 2026-05-06 13:06 | -17.94365 | 122.20779 | 301 ft | 156 kts | 104° |
| 2026-05-06 13:06 | -17.94648 | 122.21873 | 75 ft | 153 kts | 105° |
| 2026-05-06 13:07 | -17.94912 | 122.22868 | 49 ft | 129 kts | 105° |
| 2026-05-06 13:07 | -17.95022 | 122.23289 | 37 ft | 25 kts | 105° |
| 2026-05-06 13:07 | -17.95062 | 122.23435 | 31 ft | 20 kts | 115° |
| 2026-05-06 13:07 | -17.95130 | 122.23464 | 35 ft | 7 kts | 192° |
| 2026-05-06 13:08 | -17.95172 | 122.23447 | 36 ft | 6 kts | 214° |
| 2026-05-06 13:08 | -17.95185 | 122.23423 | 36 ft | 0 kts | 250° |
| 2026-05-06 13:08 | -17.95186 | 122.23420 | 34 ft | 1 kts | 252° |
| 2026-05-06 13:08 | -17.95189 | 122.23409 | 36 ft | 2 kts | 255° |
| 2026-05-06 13:09 | -17.95192 | 122.23396 | 36 ft | 0 kts | 256° |